M I D A S
Marine Information and Data Acquisition System
Tripno 293 of the Zeeleeuw from 2002-07-05 05:22:39 to 2002-07-05 12:30:10
Back to CruiseResearch ActivitiesStationsMapUnderway DataData graphs

EquipmentUnitsComments
TimeDGPSUTC
LatitudeDGPSDM.mWGS84
LongitudeDGPSDM.mWGS84
SpeedMeteo Stationm/sRelative wind speed
DirectionMeteo StationdegRelative wind direction
TemperatureMeteo Stationdeg CelciusAir temperature
PressureMeteo StationPaAtmospheric pressure
HumidityMeteo Station%Relative humidity
Missing or incorrect values are displayed as -999
Metereological data collected by the RV Zeeleeuw from 2002-07-05 05:22:39 to 2002-07-05 12:30:10
Time Latitude Longitude Speed Direction Temperature Pressure Humidity
2002-07-05 05:23 51°14.354 2°55.076 4.9 249 13.3 101240 85
2002-07-05 05:24 51°14.455 2°54.831 7.6 268 13.3 101230 85
2002-07-05 05:25 51°14.434 2°54.528 9.9 261 13.3 101210 85
2002-07-05 05:26 51°14.373 2°54.229 11.2 250 13.3 101200 85
2002-07-05 05:27 51°14.28 2°53.953 9.9 257 13.3 101200 85
2002-07-05 05:28 51°14.187 2°53.675 11 261 13.3 101190 85
2002-07-05 05:29 51°14.097 2°53.393 9.9 260 13.3 101200 85
2002-07-05 05:30 51°14.007 2°53.106 10.3 252 13.4 101200 86
2002-07-05 05:31 51°13.907 2°52.785 12.5 257 13.4 101200 86
2002-07-05 05:32 51°13.803 2°52.473 11.6 256 13.4 101190 86
2002-07-05 05:33 51°13.696 2°52.155 12 255 13.4 101190 86
2002-07-05 05:34 51°13.59 2°51.837 11.5 256 13.4 101180 86
2002-07-05 05:35 51°13.48 2°51.522 11.2 254 13.5 101190 86
2002-07-05 05:36 51°13.37 2°51.206 10.6 254 13.4 101190 86
2002-07-05 05:37 51°13.261 2°50.884 11.5 256 13.4 101180 86
2002-07-05 05:38 51°13.152 2°50.569 12.3 257 13.4 101180 87
2002-07-05 05:39 51°13.046 2°50.261 11.4 258 13.4 101190 87
2002-07-05 05:40 51°12.94 2°49.948 11.4 254 13.4 101180 87
2002-07-05 05:41 51°12.83 2°49.631 10.6 258 13.4 101160 87
2002-07-05 05:42 51°12.722 2°49.319 11.8 257 13.4 101160 87
2002-07-05 05:43 51°12.616 2°49.006 11.8 261 13.4 101160 87
2002-07-05 05:44 51°12.509 2°48.693 11.6 257 13.4 101170 87
2002-07-05 05:45 51°12.403 2°48.388 12.1 257 13.4 101160 87
2002-07-05 05:46 51°12.298 2°48.076 10.9 259 13.5 101160 87
2002-07-05 05:47 51°12.191 2°47.766 11.7 261 13.5 101170 86
2002-07-05 05:48 51°12.08 2°47.454 11.6 256 13.5 101150 87
2002-07-05 05:49 51°11.977 2°47.147 11.8 259 13.5 101170 87
2002-07-05 05:50 51°11.876 2°46.833 11 259 13.5 101160 86
2002-07-05 05:51 51°11.778 2°46.51 10.6 256 13.5 101160 86
2002-07-05 05:52 51°11.689 2°46.187 10.5 261 13.6 101170 86
2002-07-05 05:53 51°11.603 2°45.869 9.9 261 13.6 101150 86
2002-07-05 05:54 51°11.516 2°45.545 10.9 262 13.6 101160 86
2002-07-05 05:55 51°11.429 2°45.221 10 259 13.7 101160 86
2002-07-05 05:56 51°11.341 2°44.899 11.2 263 13.7 101150 86
2002-07-05 05:57 51°11.259 2°44.574 10.3 261 13.8 101160 86
2002-07-05 05:58 51°11.18 2°44.248 11.4 261 13.8 101160 86
2002-07-05 05:59 51°11.099 2°43.918 10.5 263 13.8 101150 86
2002-07-05 06:00 51°11.019 2°43.593 9.3 262 13.8 101160 86
2002-07-05 06:01 51°10.941 2°43.276 10 264 13.8 101160 85
2002-07-05 06:02 51°10.86 2°42.954 9.6 265 13.8 101160 86
2002-07-05 06:03 51°10.782 2°42.63 9.6 261 13.9 101160 86
2002-07-05 06:04 51°10.714 2°42.302 9.9 263 13.9 101150 86
2002-07-05 06:05 51°10.646 2°41.973 11.2 266 13.9 101150 86
2002-07-05 06:06 51°10.577 2°41.646 10.3 265 13.9 101140 86
2002-07-05 06:07 51°10.508 2°41.319 9.7 266 13.9 101150 85
2002-07-05 06:08 51°10.44 2°40.997 10.4 266 13.9 101150 85
2002-07-05 06:09 51°10.371 2°40.665 9.9 268 13.9 101150 85
2002-07-05 06:10 51°10.302 2°40.341 10.3 270 13.9 101150 86
2002-07-05 06:11 51°10.223 2°40.025 10.6 261 13.9 101150 86
2002-07-05 06:12 51°10.145 2°39.707 10.6 269 13.9 101140 86
2002-07-05 06:13 51°10.065 2°39.39 10.1 266 14 101140 86
2002-07-05 06:14 51°9.985 2°39.073 10.5 264 14 101150 85
2002-07-05 06:15 51°9.907 2°38.76 11.2 268 14 101140 85
2002-07-05 06:16 51°9.826 2°38.437 10.3 266 14 101140 85
2002-07-05 06:17 51°9.745 2°38.118 11 266 14 101140 85
2002-07-05 06:18 51°9.663 2°37.801 10.5 270 14 101140 85
2002-07-05 06:19 51°9.58 2°37.484 10.9 268 14 101130 85
2002-07-05 06:20 51°9.497 2°37.168 9.5 268 14 101140 85
2002-07-05 06:21 51°9.414 2°36.854 10 270 14 101130 85
2002-07-05 06:22 51°9.34 2°36.57 9.3 273 14 101130 85
2002-07-05 06:23 51°9.31 2°36.36 6.2 299 14 101160 85
2002-07-05 06:24 51°9.303 2°36.234 6 296 14 101160 85
2002-07-05 06:25 51°9.291 2°36.201 5.7 289 14.1 101160 85
2002-07-05 06:26 51°9.282 2°36.193 6.9 286 14.1 101150 85
2002-07-05 06:27 51°9.28 2°36.197 6.6 286 14.1 101160 85
2002-07-05 06:28 51°9.291 2°36.224 6 299 14 101160 85
2002-07-05 06:29 51°9.309 2°36.265 3.5 317 14 101160 85
2002-07-05 06:30 51°9.318 2°36.279 6.1 299 14.1 101160 85
2002-07-05 06:31 51°9.317 2°36.254 6.8 297 14.1 101150 85
2002-07-05 06:32 51°9.314 2°36.24 6.6 294 14 101160 85
2002-07-05 06:33 51°9.314 2°36.237 5.8 291 14 101160 85
2002-07-05 06:34 51°9.315 2°36.243 6.1 293 14.1 101150 86
2002-07-05 06:35 51°9.317 2°36.253 6.5 290 14.1 101150 85
2002-07-05 06:36 51°9.306 2°36.243 7.4 290 14 101140 85
2002-07-05 06:37 51°9.299 2°36.217 5.1 302 14 101150 85
2002-07-05 06:38 51°9.303 2°36.199 1.6 335 14 101150 85
2002-07-05 06:39 51°9.313 2°36.19 3.1 309 13.9 101160 85
2002-07-05 06:40 51°9.324 2°36.189 2.5 310 13.9 101150 85
2002-07-05 06:41 51°9.335 2°36.205 0.7 336 14 101140 85
2002-07-05 06:42 51°9.34 2°36.207 5.5 285 14 101140 86
2002-07-05 06:43 51°9.328 2°36.212 6.4 264 14 101130 85
2002-07-05 06:44 51°9.305 2°36.227 7.5 253 14 101120 86
2002-07-05 06:45 51°9.289 2°36.264 6.6 234 14 101130 85
2002-07-05 06:46 51°9.31 2°36.291 5 224 13.9 101140 85
2002-07-05 06:47 51°9.315 2°36.346 6.1 169 13.9 101130 86
2002-07-05 06:48 51°9.372 2°36.531 5.7 175 13.9 101130 86
2002-07-05 06:49 51°9.49 2°36.782 5.9 183 14 101130 86
2002-07-05 06:50 51°9.624 2°37.115 7.2 192 14 101120 86
2002-07-05 06:51 51°9.748 2°37.465 6.9 191 14 101110 86
2002-07-05 06:52 51°9.864 2°37.823 8.2 196 14 101120 85
2002-07-05 06:53 51°9.975 2°38.18 8.9 196 14 101110 85
2002-07-05 06:54 51°10.088 2°38.553 8.9 196 14 101110 85
2002-07-05 06:55 51°10.195 2°38.91 9.1 194 14.1 101110 85
2002-07-05 06:56 51°10.307 2°39.283 8.7 196 14.1 101120 86
2002-07-05 06:57 51°10.414 2°39.643 7.6 191 14.1 101120 86
2002-07-05 06:58 51°10.523 2°40.009 7.7 181 14.1 101110 85
2002-07-05 06:59 51°10.631 2°40.377 7.7 187 14.1 101110 85
2002-07-05 07:00 51°10.74 2°40.746 7.6 179 14.1 101110 85
2002-07-05 07:01 51°10.851 2°41.122 7.3 183 14.1 101110 85
2002-07-05 07:02 51°10.96 2°41.489 8.4 177 14.1 101100 85
2002-07-05 07:03 51°11.055 2°41.817 8.7 166 14.1 101110 85
2002-07-05 07:04 51°11.122 2°42.003 5.5 144 14.2 101120 85
2002-07-05 07:05 51°11.165 2°42.142 9.2 198 14.2 101120 85
2002-07-05 07:06 51°11.106 2°42.254 9.3 261 14.1 101110 85
2002-07-05 07:07 51°11.068 2°42.202 1.8 319 14.2 101120 85
2002-07-05 07:08 51°11.089 2°42.152 1 340 14.3 101130 85
2002-07-05 07:09 51°11.103 2°42.121 4.2 309 14.2 101130 85
2002-07-05 07:10 51°11.108 2°42.111 4.3 301 14.3 101120 86
2002-07-05 07:11 51°11.107 2°42.107 7.5 292 14.3 101120 85
2002-07-05 07:12 51°11.098 2°42.105 7.9 303 14.3 101110 85
2002-07-05 07:13 51°11.096 2°42.09 8.2 301 14.3 101120 85
2002-07-05 07:14 51°11.095 2°42.08 6.3 302 14.3 101110 85
2002-07-05 07:15 51°11.094 2°42.077 5.8 315 14.3 101110 85
2002-07-05 07:16 51°11.097 2°42.073 5.6 304 14.3 101120 85
2002-07-05 07:17 51°11.101 2°42.07 7 297 14.3 101120 85
2002-07-05 07:18 51°11.102 2°42.076 8 289 14.3 101110 85
2002-07-05 07:19 51°11.102 2°42.087 9.3 273 14.3 101110 85
2002-07-05 07:20 51°11.101 2°42.102 8.1 260 14.3 101100 85
2002-07-05 07:21 51°11.045 2°42.194 11.2 199 14.3 101100 85
2002-07-05 07:22 51°11.1 2°42.521 6.6 154 14.3 101090 85
2002-07-05 07:23 51°11.315 2°42.706 6.6 154 14.3 101120 84
2002-07-05 07:24 51°11.539 2°42.873 3.5 152 14.3 101110 84
2002-07-05 07:25 51°11.76 2°43.044 4.5 150 14.4 101110 84
2002-07-05 07:26 51°11.981 2°43.216 4.9 157 14.4 101120 84
2002-07-05 07:27 51°12.186 2°43.441 6.7 159 14.4 101120 84
2002-07-05 07:28 51°12.376 2°43.703 6.7 168 14.5 101120 84
2002-07-05 07:29 51°12.568 2°43.966 6.9 179 14.5 101110 84
2002-07-05 07:30 51°12.752 2°44.237 5.9 175 14.5 101110 84
2002-07-05 07:31 51°12.937 2°44.496 6.5 169 14.4 101120 83
2002-07-05 07:32 51°13.123 2°44.763 6.2 172 14.5 101110 84
2002-07-05 07:33 51°13.309 2°45.029 6.3 174 14.5 101110 83
2002-07-05 07:34 51°13.493 2°45.293 8.4 164 14.5 101120 84
2002-07-05 07:35 51°13.676 2°45.556 8 161 14.5 101110 83
2002-07-05 07:36 51°13.858 2°45.822 5.4 163 14.5 101110 83
2002-07-05 07:37 51°14.032 2°46.109 6.5 165 14.5 101100 83
2002-07-05 07:38 51°14.169 2°46.441 7.7 179 14.6 101100 83
2002-07-05 07:39 51°14.282 2°46.794 9.4 174 14.6 101100 83
2002-07-05 07:40 51°14.384 2°47.152 11.4 174 14.6 101100 82
2002-07-05 07:41 51°14.476 2°47.513 7.4 182 14.6 101100 82
2002-07-05 07:42 51°14.575 2°47.88 7.7 181 14.7 101100 82
2002-07-05 07:43 51°14.675 2°48.242 9.2 177 14.7 101100 83
2002-07-05 07:44 51°14.778 2°48.614 8.1 172 14.7 101100 82
2002-07-05 07:45 51°14.877 2°48.971 7.5 178 14.7 101100 82
2002-07-05 07:46 51°14.971 2°49.339 7.6 184 14.7 101100 82
2002-07-05 07:47 51°15.07 2°49.712 9 183 14.7 101100 82
2002-07-05 07:48 51°15.16 2°50.077 8.8 179 14.7 101100 82
2002-07-05 07:49 51°15.246 2°50.444 8.8 188 14.7 101100 82
2002-07-05 07:50 51°15.329 2°50.816 7.9 179 14.8 101100 82
2002-07-05 07:51 51°15.412 2°51.198 7.5 184 14.8 101090 82
2002-07-05 07:52 51°15.497 2°51.575 8.9 176 14.8 101100 82
2002-07-05 07:53 51°15.587 2°51.949 8.4 182 14.9 101090 83
2002-07-05 07:54 51°15.676 2°52.328 8.2 183 14.9 101100 82
2002-07-05 07:55 51°15.761 2°52.688 8.8 181 14.8 101100 82
2002-07-05 07:56 51°15.847 2°53.053 7 187 14.8 101100 81
2002-07-05 07:57 51°15.935 2°53.434 7.5 188 14.9 101100 82
2002-07-05 07:58 51°16.025 2°53.823 8 181 14.9 101100 81
2002-07-05 07:59 51°16.098 2°54.159 6.5 176 14.9 101100 82
2002-07-05 08:00 51°16.118 2°54.343 7 152 14.9 101100 81
2002-07-05 08:01 51°16.147 2°54.456 7.2 122 15 101100 82
2002-07-05 08:02 51°16.183 2°54.535 5.7 106 14.9 101110 81
2002-07-05 08:03 51°16.206 2°54.576 6.5 99 14.9 101110 81
2002-07-05 08:04 51°16.216 2°54.586 5.9 97 14.9 101100 81
2002-07-05 08:05 51°16.216 2°54.577 7.7 101 15 101100 82
2002-07-05 08:06 51°16.203 2°54.547 7.5 94 14.9 101100 81
2002-07-05 08:07 51°16.179 2°54.516 8.2 87 15 101110 82
2002-07-05 08:08 51°16.152 2°54.487 7.2 81 15.1 101100 82
2002-07-05 08:09 51°16.157 2°54.485 4.3 24 15.1 101110 81
2002-07-05 08:10 51°16.187 2°54.37 8.8 254 15.1 101110 82
2002-07-05 08:11 51°16.121 2°54.284 7.7 273 15.1 101090 81
2002-07-05 08:12 51°16.119 2°54.258 6.7 300 15.1 101100 81
2002-07-05 08:13 51°16.134 2°54.246 5.1 319 15 101110 81
2002-07-05 08:14 51°16.15 2°54.24 3.2 313 15 101100 82
2002-07-05 08:15 51°16.165 2°54.24 3.9 299 15.1 101100 82
2002-07-05 08:16 51°16.181 2°54.245 3.8 316 15.1 101110 82
2002-07-05 08:17 51°16.197 2°54.254 6.7 311 15.1 101100 82
2002-07-05 08:18 51°16.215 2°54.265 8.3 305 15.1 101110 82
2002-07-05 08:19 51°16.232 2°54.28 4.3 301 15.1 101110 82
2002-07-05 08:20 51°16.249 2°54.298 7.5 300 15.1 101110 82
2002-07-05 08:21 51°16.264 2°54.302 7.8 297 15 101100 81
2002-07-05 08:22 51°16.269 2°54.297 9.3 271 15 101100 81
2002-07-05 08:23 51°16.264 2°54.295 9.4 269 15 101080 81
2002-07-05 08:24 51°16.26 2°54.296 7.2 249 15.1 101090 81
2002-07-05 08:25 51°16.258 2°54.303 8.6 256 15.1 101080 81
2002-07-05 08:26 51°16.262 2°54.311 8.8 270 15 101090 81
2002-07-05 08:27 51°16.27 2°54.319 7.9 267 15 101100 81
2002-07-05 08:28 51°16.277 2°54.322 9.9 273 15 101100 81
2002-07-05 08:29 51°16.277 2°54.313 10.2 275 15 101100 81
2002-07-05 08:30 51°16.269 2°54.299 9.7 258 15 101080 81
2002-07-05 08:31 51°16.254 2°54.289 10.3 249 15 101090 81
2002-07-05 08:32 51°16.24 2°54.286 8.6 254 14.9 101090 81
2002-07-05 08:33 51°16.23 2°54.286 9.2 261 14.9 101080 81
2002-07-05 08:34 51°16.23 2°54.292 8.2 264 14.9 101090 81
2002-07-05 08:35 51°16.237 2°54.299 8.5 276 14.9 101090 81
2002-07-05 08:36 51°16.248 2°54.309 9.5 285 14.9 101100 81
2002-07-05 08:37 51°16.259 2°54.311 8.1 286 14.9 101100 81
2002-07-05 08:38 51°16.263 2°54.301 9.5 282 14.9 101110 82
2002-07-05 08:39 51°16.261 2°54.285 8.5 270 14.9 101080 82
2002-07-05 08:40 51°16.25 2°54.268 8.5 250 14.9 101100 82
2002-07-05 08:41 51°16.23 2°54.274 7.7 220 14.9 101100 82
2002-07-05 08:42 51°16.215 2°54.297 7.8 228 14.9 101100 83
2002-07-05 08:43 51°16.211 2°54.327 8.4 222 14.9 101100 83
2002-07-05 08:44 51°16.223 2°54.357 7.6 217 14.9 101100 82
2002-07-05 08:45 51°16.247 2°54.385 6.7 190 14.8 101090 82
2002-07-05 08:46 51°16.27 2°54.408 6.6 172 14.8 101090 82
2002-07-05 08:47 51°16.279 2°54.45 6.9 192 14.8 101090 82
2002-07-05 08:48 51°16.274 2°54.494 8 225 15 101090 83
2002-07-05 08:49 51°16.261 2°54.516 8.4 252 14.9 101080 82
2002-07-05 08:50 51°16.255 2°54.507 9.9 287 14.9 101090 83
2002-07-05 08:51 51°16.257 2°54.404 12 274 14.8 101090 82
2002-07-05 08:52 51°16.251 2°54.13 10 280 14.8 101070 82
2002-07-05 08:53 51°16.364 2°53.876 8.6 302 14.9 101090 82
2002-07-05 08:54 51°16.521 2°53.622 9.1 283 14.9 101100 83
2002-07-05 08:55 51°16.655 2°53.331 9.3 294 14.9 101090 83
2002-07-05 08:56 51°16.778 2°53.023 11.8 289 14.9 101100 83
2002-07-05 08:57 51°16.916 2°52.752 7 289 14.9 101090 83
2002-07-05 08:58 51°17.112 2°52.548 6.5 295 14.9 101100 83
2002-07-05 08:59 51°17.316 2°52.36 6.6 301 14.9 101090 83
2002-07-05 09:00 51°17.537 2°52.211 5.7 303 14.8 101100 83
2002-07-05 09:01 51°17.752 2°52.034 7.6 296 14.8 101100 84
2002-07-05 09:02 51°17.953 2°51.834 8.4 297 14.8 101090 84
2002-07-05 09:03 51°18.131 2°51.599 8.8 293 14.8 101080 84
2002-07-05 09:04 51°18.291 2°51.336 6.9 311 14.8 101080 84
2002-07-05 09:05 51°18.426 2°51.219 1.7 315 14.8 101100 84
2002-07-05 09:06 51°18.508 2°51.142 3.2 306 14.8 101100 85
2002-07-05 09:07 51°18.556 2°51.075 9.6 300 14.7 101090 85
2002-07-05 09:08 51°18.571 2°51.03 9.1 271 14.7 101080 85
2002-07-05 09:09 51°18.567 2°51.005 8.5 240 14.7 101060 85
2002-07-05 09:10 51°18.543 2°51.015 8.6 213 14.7 101080 85
2002-07-05 09:11 51°18.526 2°51.045 7.1 216 14.6 101080 85
2002-07-05 09:12 51°18.514 2°51.062 9.5 233 14.7 101080 85
2002-07-05 09:13 51°18.509 2°51.063 9.6 248 14.7 101080 86
2002-07-05 09:14 51°18.508 2°51.055 9.2 268 14.6 101060 85
2002-07-05 09:15 51°18.515 2°51.036 9.3 286 14.6 101070 85
2002-07-05 09:16 51°18.525 2°51.014 9.3 269 14.6 101080 86
2002-07-05 09:17 51°18.531 2°51.001 9.8 252 14.6 101080 86
2002-07-05 09:18 51°18.531 2°50.997 9.6 240 14.6 101090 86
2002-07-05 09:19 51°18.523 2°50.993 10.1 234 14.6 101090 86
2002-07-05 09:20 51°18.509 2°50.994 8.5 231 14.6 101080 86
2002-07-05 09:21 51°18.495 2°51.007 8.1 208 14.7 101080 86
2002-07-05 09:22 51°18.477 2°51.01 8.1 246 14.7 101080 86
2002-07-05 09:23 51°18.466 2°50.983 9.5 266 14.7 101060 86
2002-07-05 09:24 51°18.471 2°50.935 10.2 281 14.7 101070 86
2002-07-05 09:25 51°18.478 2°50.879 10.1 274 14.7 101070 86
2002-07-05 09:26 51°18.485 2°50.82 9.9 277 14.6 101070 86
2002-07-05 09:27 51°18.539 2°50.747 4.8 355 14.6 101080 85
2002-07-05 09:28 51°18.618 2°50.844 6.6 124 14.6 101090 86
2002-07-05 09:29 51°18.605 2°50.961 6.1 182 14.7 101080 86
2002-07-05 09:30 51°18.564 2°51.014 8.1 196 14.7 101070 85
2002-07-05 09:31 51°18.549 2°51.047 8.1 203 14.7 101070 86
2002-07-05 09:32 51°18.561 2°51.077 6.2 189 14.6 101070 85
2002-07-05 09:33 51°18.569 2°51.112 7.4 186 14.7 101070 86
2002-07-05 09:34 51°18.58 2°51.143 7 179 14.6 101070 85
2002-07-05 09:35 51°18.555 2°51.176 13.5 230 14.6 101070 85
2002-07-05 09:36 51°18.443 2°50.997 15.3 259 14.6 101020 85
2002-07-05 09:37 51°18.424 2°50.808 6.8 309 14.6 101050 85
2002-07-05 09:38 51°18.517 2°50.716 1.2 316 14.7 101090 85
2002-07-05 09:39 51°18.602 2°50.649 1.3 319 14.6 101090 85
2002-07-05 09:40 51°18.681 2°50.588 1.8 331 14.6 101090 85
2002-07-05 09:41 51°18.76 2°50.536 2.3 318 14.6 101100 85
2002-07-05 09:42 51°18.833 2°50.476 1.3 335 14.6 101080 85
2002-07-05 09:43 51°18.91 2°50.427 1.1 327 14.6 101080 85
2002-07-05 09:44 51°18.991 2°50.408 6.9 23 14.6 101090 85
2002-07-05 09:45 51°19.074 2°50.416 1.5 344 14.6 101090 85
2002-07-05 09:46 51°19.155 2°50.404 7.8 11 14.6 101090 85
2002-07-05 09:47 51°19.24 2°50.399 5.2 347 14.7 101090 85
2002-07-05 09:48 51°19.324 2°50.381 6 12 14.7 101090 85
2002-07-05 09:49 51°19.409 2°50.369 3.3 354 14.7 101090 84
2002-07-05 09:50 51°19.491 2°50.337 0.9 1 14.6 101090 84
2002-07-05 09:51 51°19.575 2°50.323 6.2 8 14.7 101090 84
2002-07-05 09:52 51°19.664 2°50.311 7.5 357 14.7 101090 84
2002-07-05 09:53 51°19.748 2°50.283 3.2 340 14.6 101090 84
2002-07-05 09:54 51°19.833 2°50.278 7.6 10 14.7 101090 84
2002-07-05 09:55 51°19.925 2°50.279 8.2 12 14.6 101080 84
2002-07-05 09:56 51°20.016 2°50.299 7.1 22 14.6 101090 84
2002-07-05 09:57 51°20.098 2°50.301 7.3 1 14.6 101090 84
2002-07-05 09:58 51°20.172 2°50.313 6.2 4 14.6 101080 84
2002-07-05 09:59 51°20.246 2°50.334 7.5 20 14.6 101090 84
2002-07-05 10:00 51°20.319 2°50.354 8.7 25 14.5 101090 84
2002-07-05 10:01 51°20.4 2°50.325 7.6 296 14.5 101090 84
2002-07-05 10:02 51°20.437 2°50.269 9.8 302 14.5 101070 84
2002-07-05 10:03 51°20.456 2°50.239 10.7 281 14.5 101080 84
2002-07-05 10:04 51°20.473 2°50.224 9.4 286 14.6 101070 84
2002-07-05 10:05 51°20.493 2°50.217 11.2 293 14.6 101080 84
2002-07-05 10:06 51°20.501 2°50.187 12.4 241 14.5 101070 84
2002-07-05 10:07 51°20.422 2°50.193 12.7 204 14.5 101060 84
2002-07-05 10:08 51°20.348 2°50.317 10.3 153 14.5 101040 84
2002-07-05 10:09 51°20.35 2°50.456 5 100 14.5 101060 83
2002-07-05 10:10 51°20.442 2°50.482 7.1 288 14.5 101090 84
2002-07-05 10:11 51°20.467 2°50.364 12.6 263 14.5 101060 84
2002-07-05 10:12 51°20.443 2°50.303 12.9 235 14.6 101060 84
2002-07-05 10:13 51°20.408 2°50.305 10.7 195 14.5 101070 83
2002-07-05 10:14 51°20.387 2°50.35 9.7 197 14.5 101050 83
2002-07-05 10:15 51°20.379 2°50.395 8.2 188 14.4 101050 82
2002-07-05 10:16 51°20.379 2°50.432 9.4 194 14.4 101060 82
2002-07-05 10:17 51°20.39 2°50.465 7.9 193 14.4 101060 82
2002-07-05 10:18 51°20.425 2°50.464 10 122 14.5 101060 82
2002-07-05 10:19 51°20.455 2°50.426 8.4 112 14.5 101060 81
2002-07-05 10:20 51°20.466 2°50.365 8.5 86 14.4 101060 80
2002-07-05 10:21 51°20.487 2°50.365 4.4 40 14.2 101070 78
2002-07-05 10:22 51°20.55 2°50.326 10.5 288 14.4 101070 79
2002-07-05 10:23 51°20.519 2°50.253 11.4 208 14.6 101050 80
2002-07-05 10:24 51°20.444 2°50.327 11.8 209 14.5 101050 79
2002-07-05 10:25 51°20.397 2°50.366 9.3 217 14.4 101050 77
2002-07-05 10:26 51°20.382 2°50.385 8 228 14.5 101060 78
2002-07-05 10:27 51°20.379 2°50.402 9 246 14.5 101060 79
2002-07-05 10:28 51°20.376 2°50.402 8.8 273 14.5 101030 80
2002-07-05 10:29 51°20.387 2°50.379 6.3 297 14.5 101060 79
2002-07-05 10:30 51°20.406 2°50.358 8.7 291 14.5 101060 80
2002-07-05 10:31 51°20.42 2°50.34 8.3 282 14.5 101060 80
2002-07-05 10:32 51°20.409 2°50.317 10.5 236 14.6 101050 81
2002-07-05 10:33 51°20.317 2°50.391 13.1 206 14.6 101040 81
2002-07-05 10:34 51°20.177 2°50.521 14.7 214 14.5 101030 81
2002-07-05 10:35 51°20.016 2°50.621 14.4 211 14.5 101030 81
2002-07-05 10:36 51°19.855 2°50.716 13.9 212 14.6 101030 81
2002-07-05 10:37 51°19.693 2°50.811 14.9 215 14.5 101030 81
2002-07-05 10:38 51°19.53 2°50.905 14.6 218 14.5 101030 81
2002-07-05 10:39 51°19.368 2°51.001 15.4 214 14.6 101030 81
2002-07-05 10:40 51°19.198 2°51.099 15.9 219 14.5 101020 80
2002-07-05 10:41 51°18.988 2°51.215 17 219 14.5 101020 80
2002-07-05 10:42 51°18.779 2°51.335 15.9 212 14.5 101030 81
2002-07-05 10:43 51°18.577 2°51.461 16.2 216 14.5 101020 79
2002-07-05 10:44 51°18.371 2°51.59 14.9 211 14.4 101020 79
2002-07-05 10:45 51°18.163 2°51.713 15.9 213 14.5 101030 79
2002-07-05 10:46 51°17.959 2°51.837 16.4 215 14.6 101030 80
2002-07-05 10:47 51°17.824 2°51.922 12.7 205 14.5 101030 78
2002-07-05 10:48 51°17.748 2°51.981 11.6 202 14.6 101040 79
2002-07-05 10:49 51°17.694 2°52.028 11 205 14.5 101030 78
2002-07-05 10:50 51°17.649 2°52.074 10.4 211 14.5 101040 79
2002-07-05 10:51 51°17.608 2°52.116 9.5 201 14.5 101040 78
2002-07-05 10:52 51°17.509 2°52.191 13.9 215 14.6 101030 79
2002-07-05 10:53 51°17.31 2°52.315 17.1 218 14.6 101020 80
2002-07-05 10:54 51°17.103 2°52.439 16.7 217 14.6 101030 80
2002-07-05 10:55 51°16.897 2°52.571 17.2 212 14.7 101030 81
2002-07-05 10:56 51°16.695 2°52.724 17.2 211 14.7 101030 81
2002-07-05 10:57 51°16.494 2°52.892 16.2 213 14.6 101020 80
2002-07-05 10:58 51°16.297 2°53.069 15.6 212 14.6 101010 79
2002-07-05 10:59 51°16.097 2°53.25 16.6 212 14.6 101020 80
2002-07-05 11:00 51°15.902 2°53.418 15.6 214 14.6 101010 79
2002-07-05 11:01 51°15.703 2°53.589 13.1 201 14.6 101020 80
2002-07-05 11:02 51°15.515 2°53.787 13 207 14.6 101020 80
2002-07-05 11:03 51°15.323 2°53.985 13.9 210 14.6 101040 81
2002-07-05 11:04 51°15.161 2°54.147 13.7 209 14.5 101030 80
2002-07-05 11:05 51°15.076 2°54.244 10.7 190 14.5 101040 80
2002-07-05 11:06 51°15.029 2°54.33 10.5 190 14.3 101030 78
2002-07-05 11:07 51°14.997 2°54.402 8 184 14.3 101030 76
2002-07-05 11:08 51°14.978 2°54.456 8.6 173 14.3 101040 77
2002-07-05 11:09 51°14.967 2°54.496 11.1 157 14.3 101050 78
2002-07-05 11:10 51°14.962 2°54.532 9.1 166 14.5 101050 79
2002-07-05 11:11 51°14.959 2°54.561 8.9 165 14.4 101060 79
2002-07-05 11:12 51°14.958 2°54.586 6.2 180 14.4 101060 80
2002-07-05 11:13 51°14.959 2°54.608 7.6 164 14.4 101060 81
2002-07-05 11:14 51°14.961 2°54.628 7.7 171 14.4 101060 81
2002-07-05 11:15 51°14.964 2°54.647 8.7 163 14.3 101060 81
2002-07-05 11:16 51°14.968 2°54.664 7.4 162 14.3 101060 81
2002-07-05 11:17 51°14.974 2°54.681 7.6 158 14.2 101060 81
2002-07-05 11:18 51°14.981 2°54.699 7.5 155 14.2 101060 81
2002-07-05 11:19 51°14.988 2°54.716 7.1 150 14.2 101060 81
2002-07-05 11:20 51°14.996 2°54.732 8.5 157 14.2 101060 81
2002-07-05 11:21 51°15.004 2°54.749 6 153 14.2 101070 81
2002-07-05 11:22 51°15.011 2°54.764 7.7 164 14.3 101070 82
2002-07-05 11:23 51°15.018 2°54.778 6.6 167 14.2 101070 82
2002-07-05 11:24 51°15.026 2°54.792 7.7 162 14.3 101070 83
2002-07-05 11:25 51°15.034 2°54.806 7.4 159 14.2 101070 82
2002-07-05 11:26 51°15.043 2°54.82 7.2 178 14.2 101070 82
2002-07-05 11:27 51°15.052 2°54.833 6.6 147 14.2 101070 83
2002-07-05 11:28 51°15.06 2°54.847 6.5 155 14.2 101070 83
2002-07-05 11:29 51°15.068 2°54.861 8 157 14.2 101070 83
2002-07-05 11:30 51°15.075 2°54.876 7.5 164 14.1 101070 83
2002-07-05 11:31 51°15.082 2°54.891 5.9 144 14.2 101070 84
2002-07-05 11:32 51°15.087 2°54.905 6.9 167 14.3 101080 84
2002-07-05 11:33 51°15.093 2°54.919 8.8 161 14.2 101080 84
2002-07-05 11:34 51°15.1 2°54.932 6.5 173 14.1 101080 84
2002-07-05 11:35 51°15.105 2°54.945 7.4 165 14.1 101080 84
2002-07-05 11:36 51°15.111 2°54.957 7.8 171 14.1 101080 84
2002-07-05 11:37 51°15.116 2°54.97 8 168 14 101080 83
2002-07-05 11:38 51°15.121 2°54.982 7.1 150 14 101070 83
2002-07-05 11:39 51°15.128 2°54.994 7 155 14 101080 83
2002-07-05 11:40 51°15.134 2°55.006 7.5 161 14.1 101080 84
2002-07-05 11:41 51°15.14 2°55.018 6.6 168 14.1 101080 83
2002-07-05 11:42 51°15.137 2°55.038 8.1 195 14 101080 83
2002-07-05 11:43 51°15.121 2°55.058 8.1 198 14 101080 83
2002-07-05 11:44 51°15.098 2°55.065 8.6 222 14 101080 83
2002-07-05 11:45 51°15.068 2°55.057 8.1 237 14.1 101090 83
2002-07-05 11:46 51°15.035 2°55.049 8.1 216 14.2 101080 84
2002-07-05 11:47 51°14.996 2°55.053 7.4 222 14.2 101080 83
2002-07-05 11:48 51°14.952 2°55.054 9.1 229 14.2 101080 84
2002-07-05 11:49 51°14.91 2°55.058 8.8 212 14.2 101080 84
2002-07-05 11:50 51°14.868 2°55.07 7.3 231 14.1 101080 83
2002-07-05 11:51 51°14.824 2°55.062 8.4 232 14.2 101080 83
2002-07-05 11:52 51°14.79 2°55.046 7.8 232 14.2 101080 84
2002-07-05 11:53 51°14.767 2°55.031 7.4 237 14.2 101080 84
2002-07-05 11:54 51°14.751 2°55.016 9.4 235 14.2 101080 84
2002-07-05 11:55 51°14.742 2°55.003 8.7 248 14.2 101080 83
2002-07-05 11:56 51°14.741 2°54.99 10.6 258 14.1 101070 83
2002-07-05 11:57 51°14.748 2°54.981 8 292 14.1 101070 84
2002-07-05 11:58 51°14.756 2°54.974 4.9 319 14.2 101090 84
2002-07-05 11:59 51°14.765 2°54.966 1.8 338 14.2 101100 84
2002-07-05 12:00 51°14.775 2°54.958 0.9 328 14.1 101100 84
2002-07-05 12:01 51°14.785 2°54.95 1.3 335 14.1 101100 84
2002-07-05 12:02 51°14.795 2°54.941 2.7 346 14.1 101080 84
2002-07-05 12:03 51°14.802 2°54.928 2.8 329 14.2 101080 84
2002-07-05 12:04 51°14.809 2°54.915 0.9 308 14.1 101080 84
2002-07-05 12:05 51°14.818 2°54.901 2.9 305 14 101080 84
2002-07-05 12:06 51°14.825 2°54.886 2.5 345 14 101080 84
2002-07-05 12:07 51°14.832 2°54.871 4 316 14.1 101090 84
2002-07-05 12:08 51°14.84 2°54.856 4.7 309 14.1 101080 84
2002-07-05 12:09 51°14.849 2°54.841 7.1 317 14 101080 83
2002-07-05 12:10 51°14.859 2°54.826 5.6 317 14 101080 83
2002-07-05 12:11 51°14.868 2°54.812 7.5 301 14.1 101080 84
2002-07-05 12:12 51°14.877 2°54.797 7.9 301 14.1 101080 84
2002-07-05 12:13 51°14.885 2°54.779 4.5 312 14.2 101080 84
2002-07-05 12:14 51°14.893 2°54.763 2.1 313 14.2 101080 84
2002-07-05 12:15 51°14.902 2°54.739 9.7 289 14.2 101080 84
2002-07-05 12:16 51°14.871 2°54.633 11.6 237 14.1 101060 84
2002-07-05 12:17 51°14.797 2°54.636 8.3 199 14.1 101070 84
2002-07-05 12:18 51°14.764 2°54.68 9.3 168 14 101090 84
2002-07-05 12:19 51°14.746 2°54.713 7.2 168 14 101080 84
2002-07-05 12:20 51°14.732 2°54.736 9.3 166 14 101090 84
2002-07-05 12:21 51°14.724 2°54.753 7.4 180 14 101090 84
2002-07-05 12:22 51°14.721 2°54.763 7.4 158 14 101090 84
2002-07-05 12:23 51°14.719 2°54.77 6.4 157 14 101090 84
2002-07-05 12:24 51°14.716 2°54.774 8.7 162 14.1 101090 85
2002-07-05 12:25 51°14.716 2°54.777 8.4 154 14.1 101080 85
2002-07-05 12:26 51°14.716 2°54.782 9 169 14.1 101090 85
2002-07-05 12:27 51°14.69 2°54.813 12.7 203 14 101080 85
2002-07-05 12:28 51°14.565 2°54.926 13.6 208 13.9 101060 85
2002-07-05 12:29 51°14.407 2°55.064 10.6 203 13.9 101070 86